sensor_id;sensor_type;location;lat;lon;timestamp;P1;durP1;ratioP1;P2;durP2;ratioP2
2211;SDS011;48849;48.758;9.158;2023-04-06T00:02:24;9.68;;;8.57;;
2211;SDS011;48849;48.758;9.158;2023-04-06T00:04:52;10.48;;;9.38;;
2211;SDS011;48849;48.758;9.158;2023-04-06T00:07:18;11.02;;;9.75;;
2211;SDS011;48849;48.758;9.158;2023-04-06T00:09:45;10.25;;;9.25;;
2211;SDS011;48849;48.758;9.158;2023-04-06T00:12:12;12.30;;;9.10;;
2211;SDS011;48849;48.758;9.158;2023-04-06T00:14:38;13.23;;;8.55;;
2211;SDS011;48849;48.758;9.158;2023-04-06T00:17:05;10.40;;;8.07;;
2211;SDS011;48849;48.758;9.158;2023-04-06T00:19:32;9.15;;;8.25;;
2211;SDS011;48849;48.758;9.158;2023-04-06T00:22:00;11.10;;;9.18;;
2211;SDS011;48849;48.758;9.158;2023-04-06T00:24:27;10.63;;;8.45;;
2211;SDS011;48849;48.758;9.158;2023-04-06T00:26:54;10.43;;;8.27;;
2211;SDS011;48849;48.758;9.158;2023-04-06T00:29:21;8.40;;;7.53;;
2211;SDS011;48849;48.758;9.158;2023-04-06T00:31:47;11.27;;;7.95;;
2211;SDS011;48849;48.758;9.158;2023-04-06T00:34:14;9.00;;;8.10;;
2211;SDS011;48849;48.758;9.158;2023-04-06T00:36:41;10.38;;;8.00;;
2211;SDS011;48849;48.758;9.158;2023-04-06T00:39:09;8.23;;;7.43;;
2211;SDS011;48849;48.758;9.158;2023-04-06T00:41:36;9.35;;;8.43;;
2211;SDS011;48849;48.758;9.158;2023-04-06T00:44:03;9.82;;;8.70;;
2211;SDS011;48849;48.758;9.158;2023-04-06T00:46:29;11.20;;;8.68;;
2211;SDS011;48849;48.758;9.158;2023-04-06T00:48:56;10.80;;;8.88;;
2211;SDS011;48849;48.758;9.158;2023-04-06T00:51:23;9.98;;;8.60;;
2211;SDS011;48849;48.758;9.158;2023-04-06T00:53:50;9.88;;;8.85;;
2211;SDS011;48849;48.758;9.158;2023-04-06T00:56:18;11.65;;;8.02;;
2211;SDS011;48849;48.758;9.158;2023-04-06T00:58:46;9.73;;;8.70;;
2211;SDS011;48849;48.758;9.158;2023-04-06T01:01:12;12.48;;;9.55;;
2211;SDS011;48849;48.758;9.158;2023-04-06T01:03:39;9.23;;;8.23;;
2211;SDS011;48849;48.758;9.158;2023-04-06T01:06:07;12.40;;;8.98;;
2211;SDS011;48849;48.758;9.158;2023-04-06T01:08:33;14.25;;;9.57;;
2211;SDS011;48849;48.758;9.158;2023-04-06T01:11:00;14.15;;;9.30;;
2211;SDS011;48849;48.758;9.158;2023-04-06T01:13:28;10.05;;;8.57;;
2211;SDS011;48849;48.758;9.158;2023-04-06T01:15:55;13.07;;;9.43;;
2211;SDS011;48849;48.758;9.158;2023-04-06T01:18:25;13.50;;;9.40;;
2211;SDS011;48849;48.758;9.158;2023-04-06T01:20:52;9.85;;;8.85;;
2211;SDS011;48849;48.758;9.158;2023-04-06T01:23:20;10.48;;;9.48;;
2211;SDS011;48849;48.758;9.158;2023-04-06T01:25:47;10.45;;;8.95;;
2211;SDS011;48849;48.758;9.158;2023-04-06T01:28:14;15.27;;;10.60;;
2211;SDS011;48849;48.758;9.158;2023-04-06T01:30:40;11.20;;;9.30;;
2211;SDS011;48849;48.758;9.158;2023-04-06T01:33:07;10.63;;;8.80;;
2211;SDS011;48849;48.758;9.158;2023-04-06T01:35:34;11.73;;;9.80;;
2211;SDS011;48849;48.758;9.158;2023-04-06T01:38:01;11.00;;;9.90;;
2211;SDS011;48849;48.758;9.158;2023-04-06T01:40:29;11.88;;;9.15;;
2211;SDS011;48849;48.758;9.158;2023-04-06T01:42:56;15.75;;;10.45;;
2211;SDS011;48849;48.758;9.158;2023-04-06T01:45:22;15.93;;;10.55;;
2211;SDS011;48849;48.758;9.158;2023-04-06T01:47:49;14.02;;;9.95;;
2211;SDS011;48849;48.758;9.158;2023-04-06T01:50:16;13.82;;;9.70;;
2211;SDS011;48849;48.758;9.158;2023-04-06T01:52:43;12.85;;;10.05;;
2211;SDS011;48849;48.758;9.158;2023-04-06T01:55:09;11.50;;;8.65;;
2211;SDS011;48849;48.758;9.158;2023-04-06T01:57:37;10.43;;;9.30;;
2211;SDS011;48849;48.758;9.158;2023-04-06T02:00:05;10.25;;;9.23;;
2211;SDS011;48849;48.758;9.158;2023-04-06T02:02:32;10.23;;;9.00;;
2211;SDS011;48849;48.758;9.158;2023-04-06T02:04:59;10.88;;;9.75;;
2211;SDS011;48849;48.758;9.158;2023-04-06T02:07:25;10.38;;;9.38;;
2211;SDS011;48849;48.758;9.158;2023-04-06T02:09:54;10.45;;;9.32;;
2211;SDS011;48849;48.758;9.158;2023-04-06T02:12:21;10.85;;;9.32;;
2211;SDS011;48849;48.758;9.158;2023-04-06T02:14:50;11.63;;;10.05;;
2211;SDS011;48849;48.758;9.158;2023-04-06T02:17:17;11.50;;;9.88;;
2211;SDS011;48849;48.758;9.158;2023-04-06T02:19:43;10.68;;;9.57;;
2211;SDS011;48849;48.758;9.158;2023-04-06T02:22:10;10.65;;;9.20;;
2211;SDS011;48849;48.758;9.158;2023-04-06T02:24:37;11.07;;;9.98;;
2211;SDS011;48849;48.758;9.158;2023-04-06T02:27:04;11.38;;;9.98;;
2211;SDS011;48849;48.758;9.158;2023-04-06T02:29:31;11.43;;;9.93;;
2211;SDS011;48849;48.758;9.158;2023-04-06T02:31:58;10.95;;;9.35;;
2211;SDS011;48849;48.758;9.158;2023-04-06T02:34:25;10.00;;;9.00;;
2211;SDS011;48849;48.758;9.158;2023-04-06T02:36:52;10.30;;;9.25;;
2211;SDS011;48849;48.758;9.158;2023-04-06T02:39:18;10.95;;;9.60;;
2211;SDS011;48849;48.758;9.158;2023-04-06T02:41:45;9.93;;;8.90;;
2211;SDS011;48849;48.758;9.158;2023-04-06T02:44:12;11.57;;;9.32;;
2211;SDS011;48849;48.758;9.158;2023-04-06T02:46:39;12.13;;;10.05;;
2211;SDS011;48849;48.758;9.158;2023-04-06T02:49:07;12.90;;;10.02;;
2211;SDS011;48849;48.758;9.158;2023-04-06T02:51:33;16.15;;;10.63;;
2211;SDS011;48849;48.758;9.158;2023-04-06T02:54:00;11.52;;;9.13;;
2211;SDS011;48849;48.758;9.158;2023-04-06T02:56:27;13.07;;;9.35;;
2211;SDS011;48849;48.758;9.158;2023-04-06T02:58:53;13.80;;;10.05;;
2211;SDS011;48849;48.758;9.158;2023-04-06T03:01:20;11.23;;;9.75;;
2211;SDS011;48849;48.758;9.158;2023-04-06T03:03:47;11.20;;;10.00;;
2211;SDS011;48849;48.758;9.158;2023-04-06T03:06:15;11.05;;;9.15;;
2211;SDS011;48849;48.758;9.158;2023-04-06T03:08:41;11.75;;;9.73;;
2211;SDS011;48849;48.758;9.158;2023-04-06T03:11:08;13.25;;;10.65;;
2211;SDS011;48849;48.758;9.158;2023-04-06T03:13:35;10.35;;;9.25;;
2211;SDS011;48849;48.758;9.158;2023-04-06T03:16:03;12.95;;;8.93;;
2211;SDS011;48849;48.758;9.158;2023-04-06T03:18:31;11.88;;;10.10;;
2211;SDS011;48849;48.758;9.158;2023-04-06T03:20:57;14.95;;;10.65;;
2211;SDS011;48849;48.758;9.158;2023-04-06T03:23:26;13.68;;;10.05;;
2211;SDS011;48849;48.758;9.158;2023-04-06T03:25:53;13.13;;;9.85;;
2211;SDS011;48849;48.758;9.158;2023-04-06T03:28:19;10.63;;;9.55;;
2211;SDS011;48849;48.758;9.158;2023-04-06T03:30:46;11.02;;;9.93;;
2211;SDS011;48849;48.758;9.158;2023-04-06T03:33:13;12.27;;;10.50;;
2211;SDS011;48849;48.758;9.158;2023-04-06T03:35:40;12.45;;;10.57;;
2211;SDS011;48849;48.758;9.158;2023-04-06T03:38:06;13.73;;;10.75;;
2211;SDS011;48849;48.758;9.158;2023-04-06T03:40:34;11.20;;;10.00;;
2211;SDS011;48849;48.758;9.158;2023-04-06T03:43:01;11.40;;;10.25;;
2211;SDS011;48849;48.758;9.158;2023-04-06T03:45:28;11.27;;;10.18;;
2211;SDS011;48849;48.758;9.158;2023-04-06T03:47:54;14.00;;;10.63;;
2211;SDS011;48849;48.758;9.158;2023-04-06T03:50:21;10.38;;;9.38;;
2211;SDS011;48849;48.758;9.158;2023-04-06T03:52:48;15.50;;;10.82;;
2211;SDS011;48849;48.758;9.158;2023-04-06T03:55:15;12.60;;;9.93;;
2211;SDS011;48849;48.758;9.158;2023-04-06T03:57:43;13.32;;;11.27;;
2211;SDS011;48849;48.758;9.158;2023-04-06T04:00:10;15.05;;;9.80;;
2211;SDS011;48849;48.758;9.158;2023-04-06T04:02:37;12.73;;;10.57;;
2211;SDS011;48849;48.758;9.158;2023-04-06T04:05:04;13.70;;;9.90;;
2211;SDS011;48849;48.758;9.158;2023-04-06T04:07:31;15.50;;;9.88;;
2211;SDS011;48849;48.758;9.158;2023-04-06T04:09:59;12.20;;;10.98;;
2211;SDS011;48849;48.758;9.158;2023-04-06T04:12:26;12.07;;;9.65;;
2211;SDS011;48849;48.758;9.158;2023-04-06T04:14:54;16.42;;;11.50;;
2211;SDS011;48849;48.758;9.158;2023-04-06T04:17:21;12.40;;;9.95;;
2211;SDS011;48849;48.758;9.158;2023-04-06T04:19:47;11.00;;;9.60;;
2211;SDS011;48849;48.758;9.158;2023-04-06T04:22:14;10.02;;;8.98;;
2211;SDS011;48849;48.758;9.158;2023-04-06T04:24:41;13.48;;;10.40;;
2211;SDS011;48849;48.758;9.158;2023-04-06T04:27:07;13.60;;;9.85;;
2211;SDS011;48849;48.758;9.158;2023-04-06T04:29:34;11.25;;;9.95;;
2211;SDS011;48849;48.758;9.158;2023-04-06T04:32:02;13.00;;;10.77;;
2211;SDS011;48849;48.758;9.158;2023-04-06T04:34:29;12.52;;;9.60;;
2211;SDS011;48849;48.758;9.158;2023-04-06T04:36:56;11.25;;;10.02;;
2211;SDS011;48849;48.758;9.158;2023-04-06T04:39:23;14.13;;;10.75;;
2211;SDS011;48849;48.758;9.158;2023-04-06T04:41:50;14.02;;;10.57;;
2211;SDS011;48849;48.758;9.158;2023-04-06T04:44:17;12.38;;;10.63;;
2211;SDS011;48849;48.758;9.158;2023-04-06T04:46:43;10.75;;;9.65;;
2211;SDS011;48849;48.758;9.158;2023-04-06T04:49:11;11.48;;;10.23;;
2211;SDS011;48849;48.758;9.158;2023-04-06T04:51:38;11.65;;;10.07;;
2211;SDS011;48849;48.758;9.158;2023-04-06T04:54:05;12.07;;;10.13;;
2211;SDS011;48849;48.758;9.158;2023-04-06T04:56:31;12.65;;;10.50;;
2211;SDS011;48849;48.758;9.158;2023-04-06T04:58:58;12.68;;;11.40;;
2211;SDS011;48849;48.758;9.158;2023-04-06T05:01:25;14.98;;;10.80;;
2211;SDS011;48849;48.758;9.158;2023-04-06T05:03:51;11.55;;;10.13;;
2211;SDS011;48849;48.758;9.158;2023-04-06T05:06:19;14.07;;;10.80;;
2211;SDS011;48849;48.758;9.158;2023-04-06T05:08:46;12.90;;;11.02;;
2211;SDS011;48849;48.758;9.158;2023-04-06T05:11:13;13.65;;;10.70;;
2211;SDS011;48849;48.758;9.158;2023-04-06T05:13:40;13.32;;;10.68;;
2211;SDS011;48849;48.758;9.158;2023-04-06T05:16:06;12.20;;;9.77;;
2211;SDS011;48849;48.758;9.158;2023-04-06T05:18:33;14.20;;;11.02;;
2211;SDS011;48849;48.758;9.158;2023-04-06T05:21:00;10.70;;;9.60;;
2211;SDS011;48849;48.758;9.158;2023-04-06T05:23:28;12.95;;;9.88;;
2211;SDS011;48849;48.758;9.158;2023-04-06T05:25:55;12.48;;;10.63;;
2211;SDS011;48849;48.758;9.158;2023-04-06T05:28:22;11.73;;;9.65;;
2211;SDS011;48849;48.758;9.158;2023-04-06T05:30:48;11.98;;;10.77;;
2211;SDS011;48849;48.758;9.158;2023-04-06T05:33:15;11.80;;;10.50;;
2211;SDS011;48849;48.758;9.158;2023-04-06T05:35:42;12.75;;;10.55;;
2211;SDS011;48849;48.758;9.158;2023-04-06T05:38:08;14.40;;;10.60;;
2211;SDS011;48849;48.758;9.158;2023-04-06T05:40:37;12.25;;;10.57;;
2211;SDS011;48849;48.758;9.158;2023-04-06T05:43:05;13.80;;;10.68;;
2211;SDS011;48849;48.758;9.158;2023-04-06T05:45:32;11.98;;;10.57;;
2211;SDS011;48849;48.758;9.158;2023-04-06T05:48:00;11.75;;;9.80;;
2211;SDS011;48849;48.758;9.158;2023-04-06T05:50:26;12.07;;;10.05;;
2211;SDS011;48849;48.758;9.158;2023-04-06T05:52:54;12.40;;;11.10;;
2211;SDS011;48849;48.758;9.158;2023-04-06T05:55:20;12.45;;;10.93;;
2211;SDS011;48849;48.758;9.158;2023-04-06T05:57:48;12.20;;;10.82;;
2211;SDS011;48849;48.758;9.158;2023-04-06T06:00:15;13.23;;;11.38;;
2211;SDS011;48849;48.758;9.158;2023-04-06T06:02:42;13.77;;;11.52;;
2211;SDS011;48849;48.758;9.158;2023-04-06T06:05:09;15.85;;;11.70;;
2211;SDS011;48849;48.758;9.158;2023-04-06T06:07:36;13.45;;;10.93;;
2211;SDS011;48849;48.758;9.158;2023-04-06T06:10:03;14.20;;;10.68;;
2211;SDS011;48849;48.758;9.158;2023-04-06T06:12:30;14.93;;;11.40;;
2211;SDS011;48849;48.758;9.158;2023-04-06T06:14:58;13.43;;;10.98;;
2211;SDS011;48849;48.758;9.158;2023-04-06T06:17:25;12.52;;;11.23;;
2211;SDS011;48849;48.758;9.158;2023-04-06T06:19:52;15.50;;;11.85;;
2211;SDS011;48849;48.758;9.158;2023-04-06T06:22:19;16.80;;;14.00;;
2211;SDS011;48849;48.758;9.158;2023-04-06T06:24:45;15.80;;;13.00;;
2211;SDS011;48849;48.758;9.158;2023-04-06T06:27:12;16.38;;;13.38;;
2211;SDS011;48849;48.758;9.158;2023-04-06T06:29:39;16.27;;;13.07;;
2211;SDS011;48849;48.758;9.158;2023-04-06T06:32:07;12.75;;;11.35;;
2211;SDS011;48849;48.758;9.158;2023-04-06T06:34:34;14.95;;;11.07;;
2211;SDS011;48849;48.758;9.158;2023-04-06T06:37:01;14.65;;;11.77;;
2211;SDS011;48849;48.758;9.158;2023-04-06T06:39:28;14.95;;;12.38;;
2211;SDS011;48849;48.758;9.158;2023-04-06T06:41:54;14.88;;;11.95;;
2211;SDS011;48849;48.758;9.158;2023-04-06T06:44:21;13.30;;;10.60;;
2211;SDS011;48849;48.758;9.158;2023-04-06T06:46:48;12.00;;;9.80;;
2211;SDS011;48849;48.758;9.158;2023-04-06T06:49:16;12.48;;;10.30;;
2211;SDS011;48849;48.758;9.158;2023-04-06T06:51:43;13.50;;;11.13;;
2211;SDS011;48849;48.758;9.158;2023-04-06T06:54:11;11.82;;;10.60;;
2211;SDS011;48849;48.758;9.158;2023-04-06T06:56:38;11.68;;;10.48;;
2211;SDS011;48849;48.758;9.158;2023-04-06T06:59:04;12.45;;;10.90;;
2211;SDS011;48849;48.758;9.158;2023-04-06T07:01:31;14.15;;;10.93;;
2211;SDS011;48849;48.758;9.158;2023-04-06T07:03:58;13.80;;;11.52;;
2211;SDS011;48849;48.758;9.158;2023-04-06T07:06:26;12.90;;;10.98;;
2211;SDS011;48849;48.758;9.158;2023-04-06T07:08:53;11.32;;;10.05;;
2211;SDS011;48849;48.758;9.158;2023-04-06T07:11:20;16.10;;;11.25;;
2211;SDS011;48849;48.758;9.158;2023-04-06T07:13:47;14.57;;;12.02;;
2211;SDS011;48849;48.758;9.158;2023-04-06T07:16:13;12.80;;;10.32;;
2211;SDS011;48849;48.758;9.158;2023-04-06T07:18:40;11.38;;;10.18;;
2211;SDS011;48849;48.758;9.158;2023-04-06T07:21:07;14.23;;;10.40;;
2211;SDS011;48849;48.758;9.158;2023-04-06T07:23:35;12.00;;;10.70;;
2211;SDS011;48849;48.758;9.158;2023-04-06T07:26:01;12.50;;;10.95;;
2211;SDS011;48849;48.758;9.158;2023-04-06T07:28:28;14.88;;;11.40;;
2211;SDS011;48849;48.758;9.158;2023-04-06T07:30:55;11.98;;;9.77;;
2211;SDS011;48849;48.758;9.158;2023-04-06T07:33:22;12.52;;;9.75;;
2211;SDS011;48849;48.758;9.158;2023-04-06T07:35:48;13.77;;;10.23;;
2211;SDS011;48849;48.758;9.158;2023-04-06T07:38:15;12.27;;;10.35;;
2211;SDS011;48849;48.758;9.158;2023-04-06T07:40:43;14.77;;;10.88;;
2211;SDS011;48849;48.758;9.158;2023-04-06T07:43:10;11.50;;;10.27;;
2211;SDS011;48849;48.758;9.158;2023-04-06T07:45:37;10.75;;;9.10;;
2211;SDS011;48849;48.758;9.158;2023-04-06T07:48:03;10.85;;;9.85;;
2211;SDS011;48849;48.758;9.158;2023-04-06T07:50:30;16.63;;;10.65;;
2211;SDS011;48849;48.758;9.158;2023-04-06T07:52:57;11.18;;;10.00;;
2211;SDS011;48849;48.758;9.158;2023-04-06T07:55:24;13.73;;;10.00;;
2211;SDS011;48849;48.758;9.158;2023-04-06T07:57:52;15.15;;;10.70;;
2211;SDS011;48849;48.758;9.158;2023-04-06T08:00:19;15.38;;;10.57;;
2211;SDS011;48849;48.758;9.158;2023-04-06T08:02:46;12.75;;;10.55;;
2211;SDS011;48849;48.758;9.158;2023-04-06T08:05:13;13.48;;;10.40;;
2211;SDS011;48849;48.758;9.158;2023-04-06T08:07:40;13.85;;;11.20;;
2211;SDS011;48849;48.758;9.158;2023-04-06T08:10:07;13.75;;;10.32;;
2211;SDS011;48849;48.758;9.158;2023-04-06T08:12:35;12.65;;;11.35;;
2211;SDS011;48849;48.758;9.158;2023-04-06T08:15:03;11.07;;;9.75;;
2211;SDS011;48849;48.758;9.158;2023-04-06T08:17:31;16.63;;;10.40;;
2211;SDS011;48849;48.758;9.158;2023-04-06T08:19:58;12.43;;;11.13;;
2211;SDS011;48849;48.758;9.158;2023-04-06T08:22:25;11.85;;;10.52;;
2211;SDS011;48849;48.758;9.158;2023-04-06T08:24:52;12.38;;;10.68;;
2211;SDS011;48849;48.758;9.158;2023-04-06T08:27:19;27.25;;;10.68;;
2211;SDS011;48849;48.758;9.158;2023-04-06T08:29:47;12.70;;;10.38;;
2211;SDS011;48849;48.758;9.158;2023-04-06T08:32:17;9.95;;;8.95;;
2211;SDS011;48849;48.758;9.158;2023-04-06T08:34:43;13.70;;;11.05;;
2211;SDS011;48849;48.758;9.158;2023-04-06T08:37:10;14.18;;;10.45;;
2211;SDS011;48849;48.758;9.158;2023-04-06T08:39:37;14.63;;;10.55;;
2211;SDS011;48849;48.758;9.158;2023-04-06T08:42:03;12.02;;;10.82;;
2211;SDS011;48849;48.758;9.158;2023-04-06T08:44:30;11.63;;;10.45;;
2211;SDS011;48849;48.758;9.158;2023-04-06T08:46:59;10.82;;;9.70;;
2211;SDS011;48849;48.758;9.158;2023-04-06T08:49:27;13.68;;;11.27;;
2211;SDS011;48849;48.758;9.158;2023-04-06T08:51:54;12.40;;;10.02;;
2211;SDS011;48849;48.758;9.158;2023-04-06T08:54:22;11.77;;;10.65;;
2211;SDS011;48849;48.758;9.158;2023-04-06T08:56:49;12.20;;;10.98;;
2211;SDS011;48849;48.758;9.158;2023-04-06T08:59:16;12.77;;;10.32;;
2211;SDS011;48849;48.758;9.158;2023-04-06T09:01:43;14.38;;;12.15;;
2211;SDS011;48849;48.758;9.158;2023-04-06T09:04:11;13.40;;;11.25;;
2211;SDS011;48849;48.758;9.158;2023-04-06T09:06:40;12.52;;;10.73;;
2211;SDS011;48849;48.758;9.158;2023-04-06T09:09:07;13.40;;;11.50;;
2211;SDS011;48849;48.758;9.158;2023-04-06T09:11:46;11.45;;;10.02;;
2211;SDS011;48849;48.758;9.158;2023-04-06T09:14:14;12.70;;;11.40;;
2211;SDS011;48849;48.758;9.158;2023-04-06T09:16:41;12.73;;;10.15;;
2211;SDS011;48849;48.758;9.158;2023-04-06T09:19:10;13.13;;;10.05;;
2211;SDS011;48849;48.758;9.158;2023-04-06T09:21:38;12.75;;;9.23;;
2211;SDS011;48849;48.758;9.158;2023-04-06T09:24:06;10.95;;;9.82;;
2211;SDS011;48849;48.758;9.158;2023-04-06T09:26:43;13.73;;;10.63;;
2211;SDS011;48849;48.758;9.158;2023-04-06T09:29:11;10.48;;;9.38;;
2211;SDS011;48849;48.758;9.158;2023-04-06T09:31:48;12.73;;;10.43;;
2211;SDS011;48849;48.758;9.158;2023-04-06T09:34:20;14.02;;;11.20;;
2211;SDS011;48849;48.758;9.158;2023-04-06T09:36:49;13.05;;;11.32;;
2211;SDS011;48849;48.758;9.158;2023-04-06T09:39:19;13.73;;;10.35;;
2211;SDS011;48849;48.758;9.158;2023-04-06T09:41:49;11.60;;;9.60;;
2211;SDS011;48849;48.758;9.158;2023-04-06T09:44:16;15.80;;;10.40;;
2211;SDS011;48849;48.758;9.158;2023-04-06T09:46:44;10.73;;;9.63;;
2211;SDS011;48849;48.758;9.158;2023-04-06T09:49:12;13.40;;;11.05;;
2211;SDS011;48849;48.758;9.158;2023-04-06T09:51:39;14.50;;;10.13;;
2211;SDS011;48849;48.758;9.158;2023-04-06T09:54:10;10.95;;;9.38;;
2211;SDS011;48849;48.758;9.158;2023-04-06T09:56:43;10.10;;;9.10;;
2211;SDS011;48849;48.758;9.158;2023-04-06T09:59:13;10.38;;;9.38;;
2211;SDS011;48849;48.758;9.158;2023-04-06T10:01:44;9.43;;;8.52;;
2211;SDS011;48849;48.758;9.158;2023-04-06T10:04:18;9.70;;;8.70;;
2211;SDS011;48849;48.758;9.158;2023-04-06T10:06:53;8.50;;;7.60;;
2211;SDS011;48849;48.758;9.158;2023-04-06T10:09:23;11.82;;;9.73;;
2211;SDS011;48849;48.758;9.158;2023-04-06T10:11:53;8.63;;;7.78;;
2211;SDS011;48849;48.758;9.158;2023-04-06T10:14:21;8.65;;;7.75;;
2211;SDS011;48849;48.758;9.158;2023-04-06T10:16:48;11.35;;;9.18;;
2211;SDS011;48849;48.758;9.158;2023-04-06T10:19:17;9.95;;;8.95;;
2211;SDS011;48849;48.758;9.158;2023-04-06T10:21:50;10.77;;;8.02;;
2211;SDS011;48849;48.758;9.158;2023-04-06T10:24:23;11.38;;;8.98;;
2211;SDS011;48849;48.758;9.158;2023-04-06T10:27:00;10.02;;;9.02;;
2211;SDS011;48849;48.758;9.158;2023-04-06T10:29:28;9.48;;;8.30;;
2211;SDS011;48849;48.758;9.158;2023-04-06T10:32:06;8.32;;;7.40;;
2211;SDS011;48849;48.758;9.158;2023-04-06T10:34:34;12.18;;;9.80;;
2211;SDS011;48849;48.758;9.158;2023-04-06T10:37:09;11.25;;;8.45;;
2211;SDS011;48849;48.758;9.158;2023-04-06T10:39:46;9.02;;;8.13;;
2211;SDS011;48849;48.758;9.158;2023-04-06T10:42:13;11.02;;;8.60;;
2211;SDS011;48849;48.758;9.158;2023-04-06T10:44:43;8.60;;;7.70;;
2211;SDS011;48849;48.758;9.158;2023-04-06T10:47:15;9.38;;;8.23;;
2211;SDS011;48849;48.758;9.158;2023-04-06T10:49:43;7.75;;;7.05;;
2211;SDS011;48849;48.758;9.158;2023-04-06T10:52:10;8.60;;;7.00;;
2211;SDS011;48849;48.758;9.158;2023-04-06T10:54:39;9.30;;;8.30;;
2211;SDS011;48849;48.758;9.158;2023-04-06T10:57:09;8.35;;;7.53;;
2211;SDS011;48849;48.758;9.158;2023-04-06T10:59:36;8.25;;;7.45;;
2211;SDS011;48849;48.758;9.158;2023-04-06T11:02:07;8.48;;;7.13;;
2211;SDS011;48849;48.758;9.158;2023-04-06T11:04:34;10.80;;;8.00;;
2211;SDS011;48849;48.758;9.158;2023-04-06T11:07:00;10.75;;;8.70;;
2211;SDS011;48849;48.758;9.158;2023-04-06T11:09:28;9.02;;;8.13;;
2211;SDS011;48849;48.758;9.158;2023-04-06T11:11:56;11.55;;;8.52;;
2211;SDS011;48849;48.758;9.158;2023-04-06T11:14:24;10.30;;;8.10;;
2211;SDS011;48849;48.758;9.158;2023-04-06T11:16:51;10.00;;;8.40;;
2211;SDS011;48849;48.758;9.158;2023-04-06T11:19:18;8.43;;;7.63;;
2211;SDS011;48849;48.758;9.158;2023-04-06T11:21:45;8.32;;;7.10;;
2211;SDS011;48849;48.758;9.158;2023-04-06T11:24:13;8.15;;;6.75;;
2211;SDS011;48849;48.758;9.158;2023-04-06T11:26:42;9.93;;;8.15;;
2211;SDS011;48849;48.758;9.158;2023-04-06T11:29:09;8.27;;;7.43;;
2211;SDS011;48849;48.758;9.158;2023-04-06T11:31:39;8.05;;;7.25;;
2211;SDS011;48849;48.758;9.158;2023-04-06T11:34:16;7.65;;;6.85;;
2211;SDS011;48849;48.758;9.158;2023-04-06T11:36:44;9.25;;;7.97;;
2211;SDS011;48849;48.758;9.158;2023-04-06T11:39:12;7.90;;;7.10;;
2211;SDS011;48849;48.758;9.158;2023-04-06T11:41:39;8.35;;;7.30;;
2211;SDS011;48849;48.758;9.158;2023-04-06T11:44:06;8.13;;;7.35;;
2211;SDS011;48849;48.758;9.158;2023-04-06T11:46:33;9.80;;;8.75;;
2211;SDS011;48849;48.758;9.158;2023-04-06T11:49:01;9.10;;;8.20;;
2211;SDS011;48849;48.758;9.158;2023-04-06T11:51:28;10.00;;;8.50;;
2211;SDS011;48849;48.758;9.158;2023-04-06T11:53:55;10.35;;;9.23;;
2211;SDS011;48849;48.758;9.158;2023-04-06T11:56:23;9.27;;;8.38;;
2211;SDS011;48849;48.758;9.158;2023-04-06T11:58:50;10.40;;;8.15;;
2211;SDS011;48849;48.758;9.158;2023-04-06T12:01:17;8.15;;;7.35;;
2211;SDS011;48849;48.758;9.158;2023-04-06T12:03:44;7.85;;;7.05;;
2211;SDS011;48849;48.758;9.158;2023-04-06T12:06:12;9.00;;;8.10;;
2211;SDS011;48849;48.758;9.158;2023-04-06T12:08:39;8.63;;;7.70;;
2211;SDS011;48849;48.758;9.158;2023-04-06T12:11:06;8.13;;;7.25;;
2211;SDS011;48849;48.758;9.158;2023-04-06T12:13:33;7.68;;;6.90;;
2211;SDS011;48849;48.758;9.158;2023-04-06T12:15:59;9.30;;;7.95;;
2211;SDS011;48849;48.758;9.158;2023-04-06T12:18:26;8.52;;;7.68;;
2211;SDS011;48849;48.758;9.158;2023-04-06T12:20:53;9.85;;;7.78;;
2211;SDS011;48849;48.758;9.158;2023-04-06T12:23:21;8.50;;;7.68;;
2211;SDS011;48849;48.758;9.158;2023-04-06T12:25:48;8.15;;;7.30;;
2211;SDS011;48849;48.758;9.158;2023-04-06T12:28:15;8.57;;;7.68;;
2211;SDS011;48849;48.758;9.158;2023-04-06T12:30:42;8.60;;;7.75;;
2211;SDS011;48849;48.758;9.158;2023-04-06T12:33:09;7.28;;;6.40;;
2211;SDS011;48849;48.758;9.158;2023-04-06T12:35:36;11.52;;;7.63;;
2211;SDS011;48849;48.758;9.158;2023-04-06T12:38:03;8.02;;;7.25;;
2211;SDS011;48849;48.758;9.158;2023-04-06T12:40:31;8.55;;;7.38;;
2211;SDS011;48849;48.758;9.158;2023-04-06T12:43:02;9.85;;;7.65;;
2211;SDS011;48849;48.758;9.158;2023-04-06T12:45:30;8.18;;;7.35;;
2211;SDS011;48849;48.758;9.158;2023-04-06T12:47:56;8.35;;;7.32;;
2211;SDS011;48849;48.758;9.158;2023-04-06T12:50:24;8.45;;;7.55;;
2211;SDS011;48849;48.758;9.158;2023-04-06T12:52:51;8.65;;;7.75;;
2211;SDS011;48849;48.758;9.158;2023-04-06T12:55:18;8.27;;;7.40;;
2211;SDS011;48849;48.758;9.158;2023-04-06T12:57:47;7.90;;;7.10;;
2211;SDS011;48849;48.758;9.158;2023-04-06T13:00:14;9.40;;;7.25;;
2211;SDS011;48849;48.758;9.158;2023-04-06T13:02:41;6.90;;;6.05;;
2211;SDS011;48849;48.758;9.158;2023-04-06T13:05:11;9.18;;;6.28;;
2211;SDS011;48849;48.758;9.158;2023-04-06T13:07:38;9.23;;;7.18;;
2211;SDS011;48849;48.758;9.158;2023-04-06T13:10:05;8.13;;;6.45;;
2211;SDS011;48849;48.758;9.158;2023-04-06T13:12:33;7.65;;;6.45;;
2211;SDS011;48849;48.758;9.158;2023-04-06T13:15:01;7.10;;;6.45;;
2211;SDS011;48849;48.758;9.158;2023-04-06T13:17:27;6.53;;;5.93;;
2211;SDS011;48849;48.758;9.158;2023-04-06T13:19:54;8.50;;;6.57;;
2211;SDS011;48849;48.758;9.158;2023-04-06T13:22:21;8.43;;;6.70;;
2211;SDS011;48849;48.758;9.158;2023-04-06T13:24:48;8.65;;;7.75;;
2211;SDS011;48849;48.758;9.158;2023-04-06T13:27:14;7.30;;;6.47;;
2211;SDS011;48849;48.758;9.158;2023-04-06T13:29:41;8.57;;;7.68;;
2211;SDS011;48849;48.758;9.158;2023-04-06T13:32:09;10.93;;;7.03;;
2211;SDS011;48849;48.758;9.158;2023-04-06T13:34:36;7.85;;;7.05;;
2211;SDS011;48849;48.758;9.158;2023-04-06T13:37:02;8.45;;;7.40;;
2211;SDS011;48849;48.758;9.158;2023-04-06T13:39:29;6.90;;;6.18;;
2211;SDS011;48849;48.758;9.158;2023-04-06T13:41:57;8.68;;;7.28;;
2211;SDS011;48849;48.758;9.158;2023-04-06T13:44:23;9.50;;;6.88;;
2211;SDS011;48849;48.758;9.158;2023-04-06T13:46:51;8.73;;;6.93;;
2211;SDS011;48849;48.758;9.158;2023-04-06T13:49:19;7.78;;;6.97;;
2211;SDS011;48849;48.758;9.158;2023-04-06T13:51:46;10.25;;;7.75;;
2211;SDS011;48849;48.758;9.158;2023-04-06T13:54:13;9.30;;;7.05;;
2211;SDS011;48849;48.758;9.158;2023-04-06T13:56:39;8.77;;;6.50;;
2211;SDS011;48849;48.758;9.158;2023-04-06T13:59:06;6.90;;;6.20;;
2211;SDS011;48849;48.758;9.158;2023-04-06T14:01:33;6.68;;;6.03;;
2211;SDS011;48849;48.758;9.158;2023-04-06T14:03:59;7.70;;;6.80;;
2211;SDS011;48849;48.758;9.158;2023-04-06T14:06:28;7.75;;;6.53;;
2211;SDS011;48849;48.758;9.158;2023-04-06T14:08:54;6.75;;;5.93;;
2211;SDS011;48849;48.758;9.158;2023-04-06T14:11:21;6.53;;;5.57;;
2211;SDS011;48849;48.758;9.158;2023-04-06T14:13:48;6.80;;;5.80;;
2211;SDS011;48849;48.758;9.158;2023-04-06T14:16:15;6.60;;;5.72;;
2211;SDS011;48849;48.758;9.158;2023-04-06T14:18:44;8.10;;;6.18;;
2211;SDS011;48849;48.758;9.158;2023-04-06T14:21:11;5.68;;;5.18;;
2211;SDS011;48849;48.758;9.158;2023-04-06T14:23:39;7.88;;;6.50;;
2211;SDS011;48849;48.758;9.158;2023-04-06T14:26:06;7.80;;;6.22;;
2211;SDS011;48849;48.758;9.158;2023-04-06T14:28:34;7.47;;;6.65;;
2211;SDS011;48849;48.758;9.158;2023-04-06T14:31:02;8.30;;;6.65;;
2211;SDS011;48849;48.758;9.158;2023-04-06T14:33:36;8.18;;;6.72;;
2211;SDS011;48849;48.758;9.158;2023-04-06T14:36:03;7.00;;;6.10;;
2211;SDS011;48849;48.758;9.158;2023-04-06T14:38:31;7.50;;;6.35;;
2211;SDS011;48849;48.758;9.158;2023-04-06T14:40:59;7.20;;;6.10;;
2211;SDS011;48849;48.758;9.158;2023-04-06T14:43:26;11.90;;;6.53;;
2211;SDS011;48849;48.758;9.158;2023-04-06T14:45:52;7.75;;;6.95;;
2211;SDS011;48849;48.758;9.158;2023-04-06T14:48:19;7.80;;;7.00;;